sensor_id;sensor_type;location;lat;lon;timestamp;P1;durP1;ratioP1;P2;durP2;ratioP2
6695;SDS011;3385;48.928;10.330;2022-09-01T00:00:49;0.00;;;0.00;;
6695;SDS011;3385;48.928;10.330;2022-09-01T00:03:18;0.10;;;0.10;;
6695;SDS011;3385;48.928;10.330;2022-09-01T00:05:47;0.32;;;0.17;;
6695;SDS011;3385;48.928;10.330;2022-09-01T00:08:13;0.10;;;0.10;;
6695;SDS011;3385;48.928;10.330;2022-09-01T00:10:39;0.10;;;0.10;;
6695;SDS011;3385;48.928;10.330;2022-09-01T00:13:06;0.10;;;0.10;;
6695;SDS011;3385;48.928;10.330;2022-09-01T00:15:33;0.10;;;0.10;;
6695;SDS011;3385;48.928;10.330;2022-09-01T00:18:00;0.10;;;0.10;;
6695;SDS011;3385;48.928;10.330;2022-09-01T00:20:26;0.10;;;0.10;;
6695;SDS011;3385;48.928;10.330;2022-09-01T00:22:52;0.10;;;0.10;;
6695;SDS011;3385;48.928;10.330;2022-09-01T00:25:20;0.10;;;0.10;;
6695;SDS011;3385;48.928;10.330;2022-09-01T00:27:49;0.20;;;0.20;;
6695;SDS011;3385;48.928;10.330;2022-09-01T00:30:16;0.20;;;0.20;;
6695;SDS011;3385;48.928;10.330;2022-09-01T00:32:42;0.20;;;0.20;;
6695;SDS011;3385;48.928;10.330;2022-09-01T00:35:11;0.68;;;0.40;;
6695;SDS011;3385;48.928;10.330;2022-09-01T00:37:38;0.30;;;0.30;;
6695;SDS011;3385;48.928;10.330;2022-09-01T00:40:04;0.20;;;0.20;;
6695;SDS011;3385;48.928;10.330;2022-09-01T00:42:31;0.20;;;0.20;;
6695;SDS011;3385;48.928;10.330;2022-09-01T00:44:57;0.20;;;0.20;;
6695;SDS011;3385;48.928;10.330;2022-09-01T00:47:23;0.20;;;0.20;;
6695;SDS011;3385;48.928;10.330;2022-09-01T00:49:48;0.20;;;0.20;;
6695;SDS011;3385;48.928;10.330;2022-09-01T00:52:30;0.28;;;0.28;;
6695;SDS011;3385;48.928;10.330;2022-09-01T00:55:05;0.20;;;0.20;;
6695;SDS011;3385;48.928;10.330;2022-09-01T00:57:34;0.17;;;0.17;;
6695;SDS011;3385;48.928;10.330;2022-09-01T01:00:20;0.10;;;0.10;;
6695;SDS011;3385;48.928;10.330;2022-09-01T01:02:48;0.17;;;0.15;;
6695;SDS011;3385;48.928;10.330;2022-09-01T01:05:29;0.10;;;0.10;;
6695;SDS011;3385;48.928;10.330;2022-09-01T01:07:58;0.15;;;0.10;;
6695;SDS011;3385;48.928;10.330;2022-09-01T01:10:26;0.20;;;0.17;;
6695;SDS011;3385;48.928;10.330;2022-09-01T01:12:56;0.10;;;0.10;;
6695;SDS011;3385;48.928;10.330;2022-09-01T01:15:26;0.20;;;0.20;;
6695;SDS011;3385;48.928;10.330;2022-09-01T01:17:53;0.10;;;0.10;;
6695;SDS011;3385;48.928;10.330;2022-09-01T01:20:19;0.13;;;0.10;;
6695;SDS011;3385;48.928;10.330;2022-09-01T01:23:32;0.10;;;0.10;;
6695;SDS011;3385;48.928;10.330;2022-09-01T01:26:15;0.10;;;0.10;;
6695;SDS011;3385;48.928;10.330;2022-09-01T01:28:41;0.10;;;0.10;;
6695;SDS011;3385;48.928;10.330;2022-09-01T01:31:13;0.10;;;0.10;;
6695;SDS011;3385;48.928;10.330;2022-09-01T01:33:44;0.10;;;0.10;;
6695;SDS011;3385;48.928;10.330;2022-09-01T01:36:15;0.10;;;0.10;;
6695;SDS011;3385;48.928;10.330;2022-09-01T01:38:47;0.10;;;0.10;;
6695;SDS011;3385;48.928;10.330;2022-09-01T01:41:15;0.10;;;0.10;;
6695;SDS011;3385;48.928;10.330;2022-09-01T01:43:43;0.10;;;0.10;;
6695;SDS011;3385;48.928;10.330;2022-09-01T01:46:10;0.20;;;0.20;;
6695;SDS011;3385;48.928;10.330;2022-09-01T01:48:39;1.95;;;0.65;;
6695;SDS011;3385;48.928;10.330;2022-09-01T01:51:07;0.10;;;0.10;;
6695;SDS011;3385;48.928;10.330;2022-09-01T01:53:36;0.60;;;0.35;;
6695;SDS011;3385;48.928;10.330;2022-09-01T01:56:02;1.02;;;0.35;;
6695;SDS011;3385;48.928;10.330;2022-09-01T01:58:30;2.58;;;0.85;;
6695;SDS011;3385;48.928;10.330;2022-09-01T02:00:57;0.73;;;0.40;;
6695;SDS011;3385;48.928;10.330;2022-09-01T02:03:25;1.38;;;0.52;;
6695;SDS011;3385;48.928;10.330;2022-09-01T02:05:58;0.28;;;0.25;;
6695;SDS011;3385;48.928;10.330;2022-09-01T02:08:31;0.30;;;0.30;;
6695;SDS011;3385;48.928;10.330;2022-09-01T02:11:00;0.20;;;0.20;;
6695;SDS011;3385;48.928;10.330;2022-09-01T02:13:27;0.20;;;0.20;;
6695;SDS011;3385;48.928;10.330;2022-09-01T02:15:57;0.20;;;0.20;;
6695;SDS011;3385;48.928;10.330;2022-09-01T02:18:31;0.08;;;0.08;;
6695;SDS011;3385;48.928;10.330;2022-09-01T02:21:00;0.00;;;0.00;;
6695;SDS011;3385;48.928;10.330;2022-09-01T02:23:28;0.00;;;0.00;;
6695;SDS011;3385;48.928;10.330;2022-09-01T02:25:55;0.00;;;0.00;;
6695;SDS011;3385;48.928;10.330;2022-09-01T02:28:25;0.00;;;0.00;;
6695;SDS011;3385;48.928;10.330;2022-09-01T02:30:52;0.10;;;0.10;;
6695;SDS011;3385;48.928;10.330;2022-09-01T02:33:22;0.10;;;0.10;;
6695;SDS011;3385;48.928;10.330;2022-09-01T02:35:51;0.00;;;0.00;;
6695;SDS011;3385;48.928;10.330;2022-09-01T02:38:19;0.00;;;0.00;;
6695;SDS011;3385;48.928;10.330;2022-09-01T02:40:47;0.00;;;0.00;;
6695;SDS011;3385;48.928;10.330;2022-09-01T02:43:14;0.10;;;0.10;;
6695;SDS011;3385;48.928;10.330;2022-09-01T02:45:45;0.03;;;0.03;;
6695;SDS011;3385;48.928;10.330;2022-09-01T02:48:24;0.00;;;0.00;;
6695;SDS011;3385;48.928;10.330;2022-09-01T02:50:57;0.10;;;0.10;;
6695;SDS011;3385;48.928;10.330;2022-09-01T02:53:26;0.00;;;0.00;;
6695;SDS011;3385;48.928;10.330;2022-09-01T02:55:55;0.00;;;0.00;;
6695;SDS011;3385;48.928;10.330;2022-09-01T02:58:23;0.10;;;0.10;;
6695;SDS011;3385;48.928;10.330;2022-09-01T03:00:53;0.03;;;0.03;;
6695;SDS011;3385;48.928;10.330;2022-09-01T03:03:20;0.00;;;0.00;;
6695;SDS011;3385;48.928;10.330;2022-09-01T03:05:47;0.00;;;0.00;;
6695;SDS011;3385;48.928;10.330;2022-09-01T03:08:19;0.00;;;0.00;;
6695;SDS011;3385;48.928;10.330;2022-09-01T03:10:45;0.00;;;0.00;;
6695;SDS011;3385;48.928;10.330;2022-09-01T03:13:17;0.00;;;0.00;;
6695;SDS011;3385;48.928;10.330;2022-09-01T03:15:48;0.03;;;0.03;;
6695;SDS011;3385;48.928;10.330;2022-09-01T03:18:14;0.10;;;0.05;;
6695;SDS011;3385;48.928;10.330;2022-09-01T03:20:43;0.10;;;0.10;;
6695;SDS011;3385;48.928;10.330;2022-09-01T03:23:11;0.10;;;0.10;;
6695;SDS011;3385;48.928;10.330;2022-09-01T03:25:43;0.10;;;0.10;;
6695;SDS011;3385;48.928;10.330;2022-09-01T03:28:11;0.10;;;0.10;;
6695;SDS011;3385;48.928;10.330;2022-09-01T03:30:39;0.10;;;0.10;;
6695;SDS011;3385;48.928;10.330;2022-09-01T03:33:13;0.10;;;0.10;;
6695;SDS011;3385;48.928;10.330;2022-09-01T03:35:41;0.45;;;0.17;;
6695;SDS011;3385;48.928;10.330;2022-09-01T03:38:08;0.00;;;0.00;;
6695;SDS011;3385;48.928;10.330;2022-09-01T03:40:36;0.10;;;0.10;;
6695;SDS011;3385;48.928;10.330;2022-09-01T03:43:04;0.00;;;0.00;;
6695;SDS011;3385;48.928;10.330;2022-09-01T03:45:33;0.10;;;0.10;;
6695;SDS011;3385;48.928;10.330;2022-09-01T03:48:03;0.00;;;0.00;;
6695;SDS011;3385;48.928;10.330;2022-09-01T03:50:36;0.00;;;0.00;;
6695;SDS011;3385;48.928;10.330;2022-09-01T03:53:11;0.00;;;0.00;;
6695;SDS011;3385;48.928;10.330;2022-09-01T03:55:47;0.10;;;0.10;;
6695;SDS011;3385;48.928;10.330;2022-09-01T03:58:15;0.10;;;0.10;;
6695;SDS011;3385;48.928;10.330;2022-09-01T04:00:44;0.10;;;0.10;;
6695;SDS011;3385;48.928;10.330;2022-09-01T04:03:20;0.10;;;0.10;;
6695;SDS011;3385;48.928;10.330;2022-09-01T04:05:51;0.10;;;0.10;;
6695;SDS011;3385;48.928;10.330;2022-09-01T04:08:19;0.10;;;0.10;;
6695;SDS011;3385;48.928;10.330;2022-09-01T04:10:50;0.10;;;0.10;;
6695;SDS011;3385;48.928;10.330;2022-09-01T04:13:25;0.10;;;0.10;;
6695;SDS011;3385;48.928;10.330;2022-09-01T04:15:54;0.10;;;0.10;;
6695;SDS011;3385;48.928;10.330;2022-09-01T04:18:21;0.10;;;0.10;;
6695;SDS011;3385;48.928;10.330;2022-09-01T04:20:48;0.10;;;0.10;;
6695;SDS011;3385;48.928;10.330;2022-09-01T04:25:55;0.20;;;0.20;;
6695;SDS011;3385;48.928;10.330;2022-09-01T04:28:25;0.10;;;0.10;;
6695;SDS011;3385;48.928;10.330;2022-09-01T04:31:01;0.10;;;0.10;;
6695;SDS011;3385;48.928;10.330;2022-09-01T04:33:33;0.15;;;0.15;;
6695;SDS011;3385;48.928;10.330;2022-09-01T04:36:04;0.10;;;0.10;;
6695;SDS011;3385;48.928;10.330;2022-09-01T04:38:43;0.10;;;0.10;;
6695;SDS011;3385;48.928;10.330;2022-09-01T04:41:09;0.15;;;0.10;;
6695;SDS011;3385;48.928;10.330;2022-09-01T04:43:44;0.10;;;0.10;;
6695;SDS011;3385;48.928;10.330;2022-09-01T04:46:15;0.10;;;0.10;;
6695;SDS011;3385;48.928;10.330;2022-09-01T04:48:41;0.10;;;0.10;;
6695;SDS011;3385;48.928;10.330;2022-09-01T04:51:09;0.10;;;0.10;;
6695;SDS011;3385;48.928;10.330;2022-09-01T04:53:39;0.25;;;0.10;;
6695;SDS011;3385;48.928;10.330;2022-09-01T04:56:12;0.10;;;0.10;;
6695;SDS011;3385;48.928;10.330;2022-09-01T04:58:39;0.10;;;0.10;;
6695;SDS011;3385;48.928;10.330;2022-09-01T05:01:18;0.10;;;0.10;;
6695;SDS011;3385;48.928;10.330;2022-09-01T05:03:45;0.08;;;0.00;;
6695;SDS011;3385;48.928;10.330;2022-09-01T05:06:26;0.10;;;0.10;;
6695;SDS011;3385;48.928;10.330;2022-09-01T05:08:53;0.10;;;0.10;;
6695;SDS011;3385;48.928;10.330;2022-09-01T05:11:23;0.10;;;0.10;;
6695;SDS011;3385;48.928;10.330;2022-09-01T05:13:50;0.10;;;0.10;;
6695;SDS011;3385;48.928;10.330;2022-09-01T05:16:18;0.10;;;0.10;;
6695;SDS011;3385;48.928;10.330;2022-09-01T05:18:46;0.10;;;0.10;;
6695;SDS011;3385;48.928;10.330;2022-09-01T05:21:14;0.10;;;0.10;;
6695;SDS011;3385;48.928;10.330;2022-09-01T05:23:42;0.20;;;0.10;;
6695;SDS011;3385;48.928;10.330;2022-09-01T05:26:14;0.10;;;0.10;;
6695;SDS011;3385;48.928;10.330;2022-09-01T05:28:46;0.20;;;0.10;;
6695;SDS011;3385;48.928;10.330;2022-09-01T05:31:14;0.40;;;0.30;;
6695;SDS011;3385;48.928;10.330;2022-09-01T05:33:43;0.10;;;0.10;;
6695;SDS011;3385;48.928;10.330;2022-09-01T05:36:12;0.10;;;0.10;;
6695;SDS011;3385;48.928;10.330;2022-09-01T05:38:42;0.10;;;0.10;;
6695;SDS011;3385;48.928;10.330;2022-09-01T05:41:09;0.10;;;0.10;;
6695;SDS011;3385;48.928;10.330;2022-09-01T05:43:39;0.10;;;0.10;;
6695;SDS011;3385;48.928;10.330;2022-09-01T05:46:11;0.10;;;0.10;;
6695;SDS011;3385;48.928;10.330;2022-09-01T05:48:40;0.10;;;0.10;;
6695;SDS011;3385;48.928;10.330;2022-09-01T05:51:11;0.20;;;0.20;;
6695;SDS011;3385;48.928;10.330;2022-09-01T05:53:40;0.10;;;0.10;;
6695;SDS011;3385;48.928;10.330;2022-09-01T05:56:08;0.20;;;0.20;;
6695;SDS011;3385;48.928;10.330;2022-09-01T05:58:39;0.00;;;0.00;;
6695;SDS011;3385;48.928;10.330;2022-09-01T06:01:06;0.20;;;0.20;;
6695;SDS011;3385;48.928;10.330;2022-09-01T06:03:35;0.20;;;0.20;;
6695;SDS011;3385;48.928;10.330;2022-09-01T06:06:02;0.30;;;0.30;;
6695;SDS011;3385;48.928;10.330;2022-09-01T06:08:32;0.20;;;0.20;;
6695;SDS011;3385;48.928;10.330;2022-09-01T06:11:01;0.30;;;0.30;;
6695;SDS011;3385;48.928;10.330;2022-09-01T06:13:37;0.30;;;0.30;;
6695;SDS011;3385;48.928;10.330;2022-09-01T06:16:04;0.30;;;0.30;;
6695;SDS011;3385;48.928;10.330;2022-09-01T06:18:32;0.30;;;0.30;;
6695;SDS011;3385;48.928;10.330;2022-09-01T06:20:58;0.30;;;0.30;;
6695;SDS011;3385;48.928;10.330;2022-09-01T06:23:28;0.30;;;0.30;;
6695;SDS011;3385;48.928;10.330;2022-09-01T06:25:53;0.30;;;0.30;;
6695;SDS011;3385;48.928;10.330;2022-09-01T06:28:19;0.30;;;0.30;;
6695;SDS011;3385;48.928;10.330;2022-09-01T06:30:48;0.40;;;0.40;;
6695;SDS011;3385;48.928;10.330;2022-09-01T06:33:15;0.40;;;0.40;;
6695;SDS011;3385;48.928;10.330;2022-09-01T06:35:42;0.57;;;0.57;;
6695;SDS011;3385;48.928;10.330;2022-09-01T06:38:11;0.60;;;0.60;;
6695;SDS011;3385;48.928;10.330;2022-09-01T06:40:43;0.55;;;0.55;;
6695;SDS011;3385;48.928;10.330;2022-09-01T06:43:09;0.77;;;0.77;;
6695;SDS011;3385;48.928;10.330;2022-09-01T06:45:40;0.70;;;0.70;;
6695;SDS011;3385;48.928;10.330;2022-09-01T06:48:07;0.82;;;0.82;;
6695;SDS011;3385;48.928;10.330;2022-09-01T06:50:34;0.50;;;0.50;;
6695;SDS011;3385;48.928;10.330;2022-09-01T06:53:01;0.50;;;0.50;;
6695;SDS011;3385;48.928;10.330;2022-09-01T06:55:35;0.50;;;0.50;;
6695;SDS011;3385;48.928;10.330;2022-09-01T06:58:03;0.50;;;0.50;;
6695;SDS011;3385;48.928;10.330;2022-09-01T07:00:30;0.50;;;0.50;;
6695;SDS011;3385;48.928;10.330;2022-09-01T07:02:56;0.60;;;0.60;;
6695;SDS011;3385;48.928;10.330;2022-09-01T07:05:22;1.52;;;1.17;;
6695;SDS011;3385;48.928;10.330;2022-09-01T07:07:50;0.80;;;0.80;;
6695;SDS011;3385;48.928;10.330;2022-09-01T07:10:20;0.90;;;0.82;;
6695;SDS011;3385;48.928;10.330;2022-09-01T07:12:50;0.90;;;0.90;;
6695;SDS011;3385;48.928;10.330;2022-09-01T07:15:17;1.05;;;1.05;;
6695;SDS011;3385;48.928;10.330;2022-09-01T07:17:48;1.02;;;1.02;;
6695;SDS011;3385;48.928;10.330;2022-09-01T07:20:17;1.35;;;1.30;;
6695;SDS011;3385;48.928;10.330;2022-09-01T07:22:48;1.30;;;1.20;;
6695;SDS011;3385;48.928;10.330;2022-09-01T07:25:14;1.73;;;1.50;;
6695;SDS011;3385;48.928;10.330;2022-09-01T07:27:41;1.10;;;1.10;;
6695;SDS011;3385;48.928;10.330;2022-09-01T07:30:16;1.73;;;1.63;;
6695;SDS011;3385;48.928;10.330;2022-09-01T07:32:43;1.50;;;1.40;;
6695;SDS011;3385;48.928;10.330;2022-09-01T07:35:14;1.60;;;1.48;;
6695;SDS011;3385;48.928;10.330;2022-09-01T07:37:44;1.48;;;1.38;;
6695;SDS011;3385;48.928;10.330;2022-09-01T07:40:13;1.60;;;1.50;;
6695;SDS011;3385;48.928;10.330;2022-09-01T07:42:45;1.80;;;1.70;;
6695;SDS011;3385;48.928;10.330;2022-09-01T07:45:14;2.20;;;2.00;;
6695;SDS011;3385;48.928;10.330;2022-09-01T07:47:41;1.88;;;1.77;;
6695;SDS011;3385;48.928;10.330;2022-09-01T07:50:09;2.40;;;2.00;;
6695;SDS011;3385;48.928;10.330;2022-09-01T07:52:37;1.95;;;1.85;;
6695;SDS011;3385;48.928;10.330;2022-09-01T07:55:10;1.90;;;1.80;;
6695;SDS011;3385;48.928;10.330;2022-09-01T07:57:38;2.60;;;2.40;;
6695;SDS011;3385;48.928;10.330;2022-09-01T08:00:07;2.90;;;2.70;;
6695;SDS011;3385;48.928;10.330;2022-09-01T08:02:34;2.90;;;2.70;;
6695;SDS011;3385;48.928;10.330;2022-09-01T08:05:04;3.10;;;2.80;;
6695;SDS011;3385;48.928;10.330;2022-09-01T08:07:34;3.13;;;2.92;;
6695;SDS011;3385;48.928;10.330;2022-09-01T08:10:01;3.60;;;3.03;;
6695;SDS011;3385;48.928;10.330;2022-09-01T08:12:30;4.05;;;3.30;;
6695;SDS011;3385;48.928;10.330;2022-09-01T08:14:57;3.53;;;2.97;;
6695;SDS011;3385;48.928;10.330;2022-09-01T08:17:22;2.92;;;2.70;;
6695;SDS011;3385;48.928;10.330;2022-09-01T08:19:48;2.70;;;2.50;;
6695;SDS011;3385;48.928;10.330;2022-09-01T08:22:14;3.42;;;3.13;;
6695;SDS011;3385;48.928;10.330;2022-09-01T08:24:40;2.65;;;2.42;;
6695;SDS011;3385;48.928;10.330;2022-09-01T08:27:06;2.63;;;2.42;;
6695;SDS011;3385;48.928;10.330;2022-09-01T08:29:32;2.42;;;2.22;;
6695;SDS011;3385;48.928;10.330;2022-09-01T08:31:58;2.80;;;2.60;;
6695;SDS011;3385;48.928;10.330;2022-09-01T08:34:25;2.33;;;2.15;;
6695;SDS011;3385;48.928;10.330;2022-09-01T08:36:50;2.33;;;2.17;;
6695;SDS011;3385;48.928;10.330;2022-09-01T08:39:16;2.50;;;2.30;;
6695;SDS011;3385;48.928;10.330;2022-09-01T08:44:29;3.28;;;3.00;;
6695;SDS011;3385;48.928;10.330;2022-09-01T08:47:15;2.80;;;2.60;;
6695;SDS011;3385;48.928;10.330;2022-09-01T08:49:43;2.80;;;2.55;;
6695;SDS011;3385;48.928;10.330;2022-09-01T08:57:46;2.30;;;2.10;;
6695;SDS011;3385;48.928;10.330;2022-09-01T09:00:15;3.28;;;2.90;;
6695;SDS011;3385;48.928;10.330;2022-09-01T09:05:36;2.90;;;2.70;;
6695;SDS011;3385;48.928;10.330;2022-09-01T09:11:05;2.83;;;2.63;;
6695;SDS011;3385;48.928;10.330;2022-09-01T09:16:31;3.25;;;3.03;;
6695;SDS011;3385;48.928;10.330;2022-09-01T09:19:02;2.72;;;2.53;;
6695;SDS011;3385;48.928;10.330;2022-09-01T09:21:36;2.80;;;2.60;;
6695;SDS011;3385;48.928;10.330;2022-09-01T09:24:12;2.55;;;2.35;;
6695;SDS011;3385;48.928;10.330;2022-09-01T09:26:51;3.35;;;3.00;;
6695;SDS011;3385;48.928;10.330;2022-09-01T09:29:20;3.03;;;2.72;;
6695;SDS011;3385;48.928;10.330;2022-09-01T09:31:46;2.83;;;2.28;;
6695;SDS011;3385;48.928;10.330;2022-09-01T09:34:17;3.03;;;2.78;;
6695;SDS011;3385;48.928;10.330;2022-09-01T09:36:53;3.38;;;2.88;;
6695;SDS011;3385;48.928;10.330;2022-09-01T09:39:19;3.30;;;3.00;;
6695;SDS011;3385;48.928;10.330;2022-09-01T09:42:05;3.10;;;2.83;;
6695;SDS011;3385;48.928;10.330;2022-09-01T09:44:38;3.63;;;3.20;;
6695;SDS011;3385;48.928;10.330;2022-09-01T09:47:08;3.50;;;3.20;;
6695;SDS011;3385;48.928;10.330;2022-09-01T09:49:35;3.05;;;2.80;;
6695;SDS011;3385;48.928;10.330;2022-09-01T09:54:27;3.35;;;3.08;;
6695;SDS011;3385;48.928;10.330;2022-09-01T09:57:17;3.33;;;3.00;;
6695;SDS011;3385;48.928;10.330;2022-09-01T10:02:27;3.72;;;3.20;;
6695;SDS011;3385;48.928;10.330;2022-09-01T10:07:48;2.92;;;2.72;;
6695;SDS011;3385;48.928;10.330;2022-09-01T10:10:59;5.25;;;3.03;;
6695;SDS011;3385;48.928;10.330;2022-09-01T10:13:03;2.80;;;2.58;;
6695;SDS011;3385;48.928;10.330;2022-09-01T10:15:32;3.45;;;3.15;;
6695;SDS011;3385;48.928;10.330;2022-09-01T10:18:11;3.35;;;2.83;;
6695;SDS011;3385;48.928;10.330;2022-09-01T10:20:44;2.75;;;2.53;;
6695;SDS011;3385;48.928;10.330;2022-09-01T10:23:28;3.20;;;2.90;;
6695;SDS011;3385;48.928;10.330;2022-09-01T10:26:08;2.88;;;2.60;;
6695;SDS011;3385;48.928;10.330;2022-09-01T10:28:51;3.17;;;2.85;;
6695;SDS011;3385;48.928;10.330;2022-09-01T10:31:23;5.10;;;2.90;;
6695;SDS011;3385;48.928;10.330;2022-09-01T10:33:48;4.13;;;3.10;;
6695;SDS011;3385;48.928;10.330;2022-09-01T10:36:15;3.20;;;2.90;;
6695;SDS011;3385;48.928;10.330;2022-09-01T10:38:42;4.43;;;2.90;;
6695;SDS011;3385;48.928;10.330;2022-09-01T10:41:08;3.17;;;2.92;;
6695;SDS011;3385;48.928;10.330;2022-09-01T10:43:47;3.03;;;2.78;;
6695;SDS011;3385;48.928;10.330;2022-09-01T10:48:46;3.00;;;2.70;;
6695;SDS011;3385;48.928;10.330;2022-09-01T10:53:45;3.03;;;2.83;;
6695;SDS011;3385;48.928;10.330;2022-09-01T11:04:18;5.45;;;3.08;;
6695;SDS011;3385;48.928;10.330;2022-09-01T11:30:44;2.90;;;2.70;;
6695;SDS011;3385;48.928;10.330;2022-09-01T11:36:11;3.60;;;3.30;;
6695;SDS011;3385;48.928;10.330;2022-09-01T11:41:30;3.00;;;2.80;;
6695;SDS011;3385;48.928;10.330;2022-09-01T11:44:15;3.30;;;3.00;;
6695;SDS011;3385;48.928;10.330;2022-09-01T11:46:47;3.33;;;3.03;;
6695;SDS011;3385;48.928;10.330;2022-09-01T11:49:28;4.90;;;3.20;;
6695;SDS011;3385;48.928;10.330;2022-09-01T11:51:56;3.97;;;3.20;;
6695;SDS011;3385;48.928;10.330;2022-09-01T11:54:24;5.68;;;3.67;;
6695;SDS011;3385;48.928;10.330;2022-09-01T11:56:51;4.05;;;3.22;;
6695;SDS011;3385;48.928;10.330;2022-09-01T11:59:30;3.72;;;3.42;;
6695;SDS011;3385;48.928;10.330;2022-09-01T12:02:01;3.50;;;2.95;;
6695;SDS011;3385;48.928;10.330;2022-09-01T12:04:32;4.10;;;3.65;;
6695;SDS011;3385;48.928;10.330;2022-09-01T12:07:06;6.18;;;3.58;;
6695;SDS011;3385;48.928;10.330;2022-09-01T12:09:44;3.60;;;3.30;;
6695;SDS011;3385;48.928;10.330;2022-09-01T12:12:28;3.97;;;3.67;;
6695;SDS011;3385;48.928;10.330;2022-09-01T12:14:58;5.55;;;3.45;;
6695;SDS011;3385;48.928;10.330;2022-09-01T12:17:26;4.28;;;3.40;;
6695;SDS011;3385;48.928;10.330;2022-09-01T12:19:52;4.28;;;3.88;;
6695;SDS011;3385;48.928;10.330;2022-09-01T12:22:18;4.60;;;3.67;;
6695;SDS011;3385;48.928;10.330;2022-09-01T12:24:52;5.32;;;3.00;;
6695;SDS011;3385;48.928;10.330;2022-09-01T12:27:20;4.45;;;3.60;;
6695;SDS011;3385;48.928;10.330;2022-09-01T12:29:49;4.85;;;3.30;;
6695;SDS011;3385;48.928;10.330;2022-09-01T12:32:15;5.35;;;3.60;;
6695;SDS011;3385;48.928;10.330;2022-09-01T12:34:43;5.30;;;3.40;;
6695;SDS011;3385;48.928;10.330;2022-09-01T12:39:51;3.42;;;3.10;;
6695;SDS011;3385;48.928;10.330;2022-09-01T12:52:53;3.50;;;3.20;;
6695;SDS011;3385;48.928;10.330;2022-09-01T12:55:28;4.07;;;3.67;;
6695;SDS011;3385;48.928;10.330;2022-09-01T12:57:59;3.90;;;3.50;;
6695;SDS011;3385;48.928;10.330;2022-09-01T13:00:53;5.13;;;3.78;;
6695;SDS011;3385;48.928;10.330;2022-09-01T13:03:25;4.05;;;3.75;;
6695;SDS011;3385;48.928;10.330;2022-09-01T13:05:54;4.38;;;4.00;;
6695;SDS011;3385;48.928;10.330;2022-09-01T13:08:24;4.10;;;3.80;;
6695;SDS011;3385;48.928;10.330;2022-09-01T13:11:03;4.57;;;3.95;;
6695;SDS011;3385;48.928;10.330;2022-09-01T13:13:31;3.85;;;3.55;;
6695;SDS011;3385;48.928;10.330;2022-09-01T13:15:59;5.38;;;3.72;;
6695;SDS011;3385;48.928;10.330;2022-09-01T13:18:32;4.20;;;3.80;;
6695;SDS011;3385;48.928;10.330;2022-09-01T13:20:59;6.80;;;3.88;;
6695;SDS011;3385;48.928;10.330;2022-09-01T13:23:25;4.43;;;3.97;;
6695;SDS011;3385;48.928;10.330;2022-09-01T13:25:51;4.35;;;3.90;;
6695;SDS011;3385;48.928;10.330;2022-09-01T13:28:17;4.30;;;3.90;;
6695;SDS011;3385;48.928;10.330;2022-09-01T13:30:44;3.80;;;3.50;;
6695;SDS011;3385;48.928;10.330;2022-09-01T13:33:17;4.32;;;3.70;;
6695;SDS011;3385;48.928;10.330;2022-09-01T13:35:43;4.10;;;3.40;;
6695;SDS011;3385;48.928;10.330;2022-09-01T13:38:09;4.22;;;3.83;;
6695;SDS011;3385;48.928;10.330;2022-09-01T13:40:35;5.32;;;3.80;;
6695;SDS011;3385;48.928;10.330;2022-09-01T13:43:01;7.30;;;4.35;;
6695;SDS011;3385;48.928;10.330;2022-09-01T13:45:28;4.07;;;3.58;;
6695;SDS011;3385;48.928;10.330;2022-09-01T13:47:54;5.15;;;3.88;;
6695;SDS011;3385;48.928;10.330;2022-09-01T13:50:21;4.03;;;3.72;;
6695;SDS011;3385;48.928;10.330;2022-09-01T13:52:49;3.80;;;3.50;;
6695;SDS011;3385;48.928;10.330;2022-09-01T13:55:23;3.40;;;3.20;;
6695;SDS011;3385;48.928;10.330;2022-09-01T13:57:51;4.65;;;3.17;;
6695;SDS011;3385;48.928;10.330;2022-09-01T14:00:19;3.58;;;2.90;;
6695;SDS011;3385;48.928;10.330;2022-09-01T14:02:48;3.60;;;3.30;;
6695;SDS011;3385;48.928;10.330;2022-09-01T14:05:20;3.25;;;2.95;;
6695;SDS011;3385;48.928;10.330;2022-09-01T14:07:55;3.25;;;2.90;;
6695;SDS011;3385;48.928;10.330;2022-09-01T14:10:22;2.92;;;2.63;;
6695;SDS011;3385;48.928;10.330;2022-09-01T14:12:49;6.05;;;2.60;;
6695;SDS011;3385;48.928;10.330;2022-09-01T14:15:15;3.60;;;2.67;;
6695;SDS011;3385;48.928;10.330;2022-09-01T14:17:43;3.67;;;2.85;;
6695;SDS011;3385;48.928;10.330;2022-09-01T14:20:11;3.15;;;2.95;;
6695;SDS011;3385;48.928;10.330;2022-09-01T14:22:40;3.90;;;2.40;;
6695;SDS011;3385;48.928;10.330;2022-09-01T14:25:07;3.28;;;2.60;;
6695;SDS011;3385;48.928;10.330;2022-09-01T14:27:34;3.85;;;2.90;;
6695;SDS011;3385;48.928;10.330;2022-09-01T14:30:01;5.53;;;3.20;;
6695;SDS011;3385;48.928;10.330;2022-09-01T14:32:28;5.30;;;3.17;;
6695;SDS011;3385;48.928;10.330;2022-09-01T14:34:54;3.45;;;3.05;;
6695;SDS011;3385;48.928;10.330;2022-09-01T14:37:20;5.47;;;3.25;;
6695;SDS011;3385;48.928;10.330;2022-09-01T14:39:50;3.92;;;3.00;;
6695;SDS011;3385;48.928;10.330;2022-09-01T14:42:17;5.30;;;2.70;;
6695;SDS011;3385;48.928;10.330;2022-09-01T14:44:44;4.10;;;3.13;;
6695;SDS011;3385;48.928;10.330;2022-09-01T14:47:11;4.75;;;2.70;;
6695;SDS011;3385;48.928;10.330;2022-09-01T14:49:37;3.20;;;2.50;;
6695;SDS011;3385;48.928;10.330;2022-09-01T14:52:04;2.58;;;2.38;;
6695;SDS011;3385;48.928;10.330;2022-09-01T14:54:35;2.70;;;2.50;;
6695;SDS011;3385;48.928;10.330;2022-09-01T14:57:02;6.00;;;2.63;;
6695;SDS011;3385;48.928;10.330;2022-09-01T14:59:29;2.70;;;2.50;;
6695;SDS011;3385;48.928;10.330;2022-09-01T15:01:55;3.65;;;2.67;;
6695;SDS011;3385;48.928;10.330;2022-09-01T15:04:20;7.82;;;2.78;;
6695;SDS011;3385;48.928;10.330;2022-09-01T15:06:46;3.20;;;2.90;;
6695;SDS011;3385;48.928;10.330;2022-09-01T15:09:12;3.17;;;2.88;;
6695;SDS011;3385;48.928;10.330;2022-09-01T15:11:39;3.03;;;2.83;;
6695;SDS011;3385;48.928;10.330;2022-09-01T15:14:08;2.95;;;2.70;;
6695;SDS011;3385;48.928;10.330;2022-09-01T15:16:35;3.42;;;3.00;;
6695;SDS011;3385;48.928;10.330;2022-09-01T15:19:05;4.32;;;3.00;;
6695;SDS011;3385;48.928;10.330;2022-09-01T15:21:35;3.38;;;3.08;;
6695;SDS011;3385;48.928;10.330;2022-09-01T15:24:03;3.47;;;3.17;;
6695;SDS011;3385;48.928;10.330;2022-09-01T15:26:29;3.88;;;3.50;;
6695;SDS011;3385;48.928;10.330;2022-09-01T15:28:56;3.53;;;3.22;;
6695;SDS011;3385;48.928;10.330;2022-09-01T15:31:22;3.28;;;2.55;;
6695;SDS011;3385;48.928;10.330;2022-09-01T15:33:53;2.58;;;2.38;;
6695;SDS011;3385;48.928;10.330;2022-09-01T15:36:21;3.47;;;2.80;;
6695;SDS011;3385;48.928;10.330;2022-09-01T15:38:48;4.15;;;3.03;;
6695;SDS011;3385;48.928;10.330;2022-09-01T15:41:23;2.78;;;2.58;;
6695;SDS011;3385;48.928;10.330;2022-09-01T15:43:52;2.95;;;2.75;;
6695;SDS011;3385;48.928;10.330;2022-09-01T15:46:18;3.97;;;2.60;;
6695;SDS011;3385;48.928;10.330;2022-09-01T15:48:44;4.90;;;2.83;;
6695;SDS011;3385;48.928;10.330;2022-09-01T15:53:55;2.60;;;2.40;;
6695;SDS011;3385;48.928;10.330;2022-09-01T15:56:22;3.05;;;2.60;;
6695;SDS011;3385;48.928;10.330;2022-09-01T15:58:50;3.13;;;2.55;;
6695;SDS011;3385;48.928;10.330;2022-09-01T16:01:16;5.18;;;2.65;;
6695;SDS011;3385;48.928;10.330;2022-09-01T16:03:42;3.50;;;2.45;;
6695;SDS011;3385;48.928;10.330;2022-09-01T16:06:09;2.97;;;2.72;;
6695;SDS011;3385;48.928;10.330;2022-09-01T16:08:35;3.25;;;2.90;;
6695;SDS011;3385;48.928;10.330;2022-09-01T16:11:05;3.30;;;3.00;;
6695;SDS011;3385;48.928;10.330;2022-09-01T16:13:34;3.00;;;2.80;;
6695;SDS011;3385;48.928;10.330;2022-09-01T16:16:24;3.35;;;2.80;;
6695;SDS011;3385;48.928;10.330;2022-09-01T16:24:37;4.03;;;2.88;;
6695;SDS011;3385;48.928;10.330;2022-09-01T16:27:09;3.15;;;2.72;;
6695;SDS011;3385;48.928;10.330;2022-09-01T16:29:49;5.15;;;2.88;;
6695;SDS011;3385;48.928;10.330;2022-09-01T16:32:19;3.33;;;3.03;;
6695;SDS011;3385;48.928;10.330;2022-09-01T16:34:47;2.90;;;2.70;;
6695;SDS011;3385;48.928;10.330;2022-09-01T16:48:29;3.53;;;2.60;;
6695;SDS011;3385;48.928;10.330;2022-09-01T16:51:20;3.08;;;2.63;;
6695;SDS011;3385;48.928;10.330;2022-09-01T16:59:26;3.00;;;2.67;;
6695;SDS011;3385;48.928;10.330;2022-09-01T17:04:45;3.53;;;2.63;;
6695;SDS011;3385;48.928;10.330;2022-09-01T17:07:20;4.20;;;2.53;;